sensor_id;sensor_type;location;lat;lon;timestamp;P1;durP1;ratioP1;P2;durP2;ratioP2
27031;SDS011;14580;52.918;9.214;2024-01-16T00:01:45;0.50;;;0.50;;
27031;SDS011;14580;52.918;9.214;2024-01-16T00:04:11;1.50;;;1.40;;
27031;SDS011;14580;52.918;9.214;2024-01-16T00:06:40;2.87;;;1.37;;
27031;SDS011;14580;52.918;9.214;2024-01-16T00:09:07;0.90;;;0.70;;
27031;SDS011;14580;52.918;9.214;2024-01-16T00:11:39;0.67;;;0.67;;
27031;SDS011;14580;52.918;9.214;2024-01-16T00:14:06;0.50;;;0.50;;
27031;SDS011;14580;52.918;9.214;2024-01-16T00:16:32;0.67;;;0.57;;
27031;SDS011;14580;52.918;9.214;2024-01-16T00:18:57;0.70;;;0.57;;
27031;SDS011;14580;52.918;9.214;2024-01-16T00:21:23;0.90;;;0.50;;
27031;SDS011;14580;52.918;9.214;2024-01-16T00:23:49;1.03;;;0.30;;
27031;SDS011;14580;52.918;9.214;2024-01-16T00:26:21;0.60;;;0.40;;
27031;SDS011;14580;52.918;9.214;2024-01-16T00:28:47;0.33;;;0.33;;
27031;SDS011;14580;52.918;9.214;2024-01-16T00:31:13;0.37;;;0.37;;
27031;SDS011;14580;52.918;9.214;2024-01-16T00:33:40;0.30;;;0.30;;
27031;SDS011;14580;52.918;9.214;2024-01-16T00:36:06;0.50;;;0.50;;
27031;SDS011;14580;52.918;9.214;2024-01-16T00:38:35;0.30;;;0.30;;
27031;SDS011;14580;52.918;9.214;2024-01-16T00:41:01;0.50;;;0.50;;
27031;SDS011;14580;52.918;9.214;2024-01-16T00:43:26;0.93;;;0.30;;
27031;SDS011;14580;52.918;9.214;2024-01-16T00:45:52;0.30;;;0.30;;
27031;SDS011;14580;52.918;9.214;2024-01-16T00:48:18;0.20;;;0.20;;
27031;SDS011;14580;52.918;9.214;2024-01-16T00:50:46;0.40;;;0.40;;
27031;SDS011;14580;52.918;9.214;2024-01-16T00:53:14;0.43;;;0.43;;
27031;SDS011;14580;52.918;9.214;2024-01-16T00:55:42;0.30;;;0.30;;
27031;SDS011;14580;52.918;9.214;2024-01-16T00:58:08;0.30;;;0.30;;
27031;SDS011;14580;52.918;9.214;2024-01-16T01:00:34;0.50;;;0.50;;
27031;SDS011;14580;52.918;9.214;2024-01-16T01:03:02;0.30;;;0.30;;
27031;SDS011;14580;52.918;9.214;2024-01-16T01:05:29;1.23;;;0.43;;
27031;SDS011;14580;52.918;9.214;2024-01-16T01:07:55;0.57;;;0.57;;
27031;SDS011;14580;52.918;9.214;2024-01-16T01:10:21;2.77;;;0.50;;
27031;SDS011;14580;52.918;9.214;2024-01-16T01:12:48;0.60;;;0.60;;
27031;SDS011;14580;52.918;9.214;2024-01-16T01:15:14;0.20;;;0.20;;
27031;SDS011;14580;52.918;9.214;2024-01-16T01:17:40;0.30;;;0.30;;
27031;SDS011;14580;52.918;9.214;2024-01-16T01:20:08;0.50;;;0.20;;
27031;SDS011;14580;52.918;9.214;2024-01-16T01:22:34;0.53;;;0.40;;
27031;SDS011;14580;52.918;9.214;2024-01-16T01:25:02;0.60;;;0.50;;
27031;SDS011;14580;52.918;9.214;2024-01-16T01:27:28;0.90;;;0.67;;
27031;SDS011;14580;52.918;9.214;2024-01-16T01:29:54;0.87;;;0.60;;
27031;SDS011;14580;52.918;9.214;2024-01-16T01:32:20;1.83;;;0.87;;
27031;SDS011;14580;52.918;9.214;2024-01-16T01:34:46;1.30;;;1.20;;
27031;SDS011;14580;52.918;9.214;2024-01-16T01:37:12;1.83;;;1.50;;
27031;SDS011;14580;52.918;9.214;2024-01-16T01:39:39;1.43;;;1.20;;
27031;SDS011;14580;52.918;9.214;2024-01-16T01:42:05;0.93;;;0.90;;
27031;SDS011;14580;52.918;9.214;2024-01-16T01:44:31;1.10;;;1.00;;
27031;SDS011;14580;52.918;9.214;2024-01-16T01:46:57;2.03;;;1.40;;
27031;SDS011;14580;52.918;9.214;2024-01-16T01:49:24;1.87;;;1.30;;
27031;SDS011;14580;52.918;9.214;2024-01-16T01:51:51;1.63;;;1.30;;
27031;SDS011;14580;52.918;9.214;2024-01-16T01:54:19;1.23;;;0.80;;
27031;SDS011;14580;52.918;9.214;2024-01-16T01:56:46;0.30;;;0.30;;
27031;SDS011;14580;52.918;9.214;2024-01-16T01:59:14;0.70;;;0.30;;
27031;SDS011;14580;52.918;9.214;2024-01-16T02:01:43;1.13;;;0.77;;
27031;SDS011;14580;52.918;9.214;2024-01-16T02:04:12;0.40;;;0.40;;
27031;SDS011;14580;52.918;9.214;2024-01-16T02:06:41;0.93;;;0.70;;
27031;SDS011;14580;52.918;9.214;2024-01-16T02:09:09;0.60;;;0.47;;
27031;SDS011;14580;52.918;9.214;2024-01-16T02:11:38;0.53;;;0.53;;
27031;SDS011;14580;52.918;9.214;2024-01-16T02:14:07;0.50;;;0.50;;
27031;SDS011;14580;52.918;9.214;2024-01-16T02:16:38;0.50;;;0.50;;
27031;SDS011;14580;52.918;9.214;2024-01-16T02:19:09;3.00;;;0.70;;
27031;SDS011;14580;52.918;9.214;2024-01-16T02:21:39;0.53;;;0.53;;
27031;SDS011;14580;52.918;9.214;2024-01-16T02:24:12;1.17;;;0.70;;
27031;SDS011;14580;52.918;9.214;2024-01-16T02:26:39;0.60;;;0.53;;
27031;SDS011;14580;52.918;9.214;2024-01-16T02:29:04;0.57;;;0.40;;
27031;SDS011;14580;52.918;9.214;2024-01-16T02:31:31;1.33;;;0.50;;
27031;SDS011;14580;52.918;9.214;2024-01-16T02:33:57;0.40;;;0.40;;
27031;SDS011;14580;52.918;9.214;2024-01-16T02:36:24;0.57;;;0.37;;
27031;SDS011;14580;52.918;9.214;2024-01-16T02:38:52;0.30;;;0.30;;
27031;SDS011;14580;52.918;9.214;2024-01-16T02:41:18;0.33;;;0.33;;
27031;SDS011;14580;52.918;9.214;2024-01-16T02:43:44;0.50;;;0.30;;
27031;SDS011;14580;52.918;9.214;2024-01-16T02:46:10;0.40;;;0.40;;
27031;SDS011;14580;52.918;9.214;2024-01-16T02:48:36;0.40;;;0.40;;
27031;SDS011;14580;52.918;9.214;2024-01-16T02:51:02;2.20;;;0.30;;
27031;SDS011;14580;52.918;9.214;2024-01-16T02:53:29;0.70;;;0.43;;
27031;SDS011;14580;52.918;9.214;2024-01-16T02:55:56;0.70;;;0.40;;
27031;SDS011;14580;52.918;9.214;2024-01-16T02:58:26;0.30;;;0.30;;
27031;SDS011;14580;52.918;9.214;2024-01-16T03:00:52;0.57;;;0.50;;
27031;SDS011;14580;52.918;9.214;2024-01-16T03:03:19;1.30;;;0.70;;
27031;SDS011;14580;52.918;9.214;2024-01-16T03:05:45;0.90;;;0.67;;
27031;SDS011;14580;52.918;9.214;2024-01-16T03:08:12;1.13;;;0.50;;
27031;SDS011;14580;52.918;9.214;2024-01-16T03:10:38;2.67;;;0.80;;
27031;SDS011;14580;52.918;9.214;2024-01-16T03:13:03;0.70;;;0.70;;
27031;SDS011;14580;52.918;9.214;2024-01-16T03:15:29;0.40;;;0.40;;
27031;SDS011;14580;52.918;9.214;2024-01-16T03:17:58;0.93;;;0.90;;
27031;SDS011;14580;52.918;9.214;2024-01-16T03:20:26;1.57;;;0.83;;
27031;SDS011;14580;52.918;9.214;2024-01-16T03:22:52;1.47;;;0.97;;
27031;SDS011;14580;52.918;9.214;2024-01-16T03:25:19;1.60;;;1.00;;
27031;SDS011;14580;52.918;9.214;2024-01-16T03:27:46;0.77;;;0.77;;
27031;SDS011;14580;52.918;9.214;2024-01-16T03:30:12;0.73;;;0.73;;
27031;SDS011;14580;52.918;9.214;2024-01-16T03:32:38;1.17;;;0.63;;
27031;SDS011;14580;52.918;9.214;2024-01-16T03:35:07;0.80;;;0.80;;
27031;SDS011;14580;52.918;9.214;2024-01-16T03:37:33;0.90;;;0.70;;
27031;SDS011;14580;52.918;9.214;2024-01-16T03:39:59;0.57;;;0.50;;
27031;SDS011;14580;52.918;9.214;2024-01-16T03:42:25;0.60;;;0.60;;
27031;SDS011;14580;52.918;9.214;2024-01-16T03:44:51;1.13;;;0.90;;
27031;SDS011;14580;52.918;9.214;2024-01-16T03:47:17;0.93;;;0.77;;
27031;SDS011;14580;52.918;9.214;2024-01-16T03:49:43;2.70;;;0.80;;
27031;SDS011;14580;52.918;9.214;2024-01-16T03:52:09;1.10;;;0.70;;
27031;SDS011;14580;52.918;9.214;2024-01-16T03:54:35;0.60;;;0.60;;
27031;SDS011;14580;52.918;9.214;2024-01-16T03:57:01;2.40;;;0.67;;
27031;SDS011;14580;52.918;9.214;2024-01-16T03:59:26;0.33;;;0.33;;
27031;SDS011;14580;52.918;9.214;2024-01-16T04:01:53;0.40;;;0.40;;
27031;SDS011;14580;52.918;9.214;2024-01-16T04:04:18;0.40;;;0.40;;
27031;SDS011;14580;52.918;9.214;2024-01-16T04:06:45;0.60;;;0.60;;
27031;SDS011;14580;52.918;9.214;2024-01-16T04:09:11;2.67;;;0.40;;
27031;SDS011;14580;52.918;9.214;2024-01-16T04:11:39;0.60;;;0.60;;
27031;SDS011;14580;52.918;9.214;2024-01-16T04:14:05;0.40;;;0.40;;
27031;SDS011;14580;52.918;9.214;2024-01-16T04:16:31;1.47;;;0.67;;
27031;SDS011;14580;52.918;9.214;2024-01-16T04:18:57;1.50;;;0.77;;
27031;SDS011;14580;52.918;9.214;2024-01-16T04:21:23;0.67;;;0.63;;
27031;SDS011;14580;52.918;9.214;2024-01-16T04:23:48;3.33;;;0.73;;
27031;SDS011;14580;52.918;9.214;2024-01-16T04:26:14;1.60;;;0.70;;
27031;SDS011;14580;52.918;9.214;2024-01-16T04:28:40;5.07;;;0.87;;
27031;SDS011;14580;52.918;9.214;2024-01-16T04:31:07;2.10;;;1.00;;
27031;SDS011;14580;52.918;9.214;2024-01-16T04:33:33;0.80;;;0.80;;
27031;SDS011;14580;52.918;9.214;2024-01-16T04:35:59;6.10;;;1.07;;
27031;SDS011;14580;52.918;9.214;2024-01-16T04:38:25;1.00;;;0.60;;
27031;SDS011;14580;52.918;9.214;2024-01-16T04:40:51;1.27;;;0.80;;
27031;SDS011;14580;52.918;9.214;2024-01-16T04:43:16;1.47;;;0.80;;
27031;SDS011;14580;52.918;9.214;2024-01-16T04:45:42;0.57;;;0.57;;
27031;SDS011;14580;52.918;9.214;2024-01-16T04:48:08;2.60;;;1.17;;
27031;SDS011;14580;52.918;9.214;2024-01-16T04:50:34;2.30;;;1.33;;
27031;SDS011;14580;52.918;9.214;2024-01-16T04:53:00;3.00;;;1.00;;
27031;SDS011;14580;52.918;9.214;2024-01-16T04:55:27;3.43;;;0.87;;
27031;SDS011;14580;52.918;9.214;2024-01-16T04:57:54;3.03;;;0.77;;
27031;SDS011;14580;52.918;9.214;2024-01-16T05:00:20;0.93;;;0.90;;
27031;SDS011;14580;52.918;9.214;2024-01-16T05:02:46;3.33;;;1.30;;
27031;SDS011;14580;52.918;9.214;2024-01-16T05:05:12;2.70;;;1.13;;
27031;SDS011;14580;52.918;9.214;2024-01-16T05:07:39;2.10;;;0.50;;
27031;SDS011;14580;52.918;9.214;2024-01-16T05:10:06;1.17;;;0.70;;
27031;SDS011;14580;52.918;9.214;2024-01-16T05:12:35;2.23;;;0.87;;
27031;SDS011;14580;52.918;9.214;2024-01-16T05:15:00;4.57;;;0.70;;
27031;SDS011;14580;52.918;9.214;2024-01-16T05:17:26;1.20;;;1.00;;
27031;SDS011;14580;52.918;9.214;2024-01-16T05:19:52;1.83;;;0.90;;
27031;SDS011;14580;52.918;9.214;2024-01-16T05:22:18;2.30;;;0.87;;
27031;SDS011;14580;52.918;9.214;2024-01-16T05:24:43;1.53;;;0.90;;
27031;SDS011;14580;52.918;9.214;2024-01-16T05:27:09;2.07;;;0.60;;
27031;SDS011;14580;52.918;9.214;2024-01-16T05:29:35;2.40;;;0.90;;
27031;SDS011;14580;52.918;9.214;2024-01-16T05:32:02;0.83;;;0.67;;
27031;SDS011;14580;52.918;9.214;2024-01-16T05:34:29;1.47;;;0.90;;
27031;SDS011;14580;52.918;9.214;2024-01-16T05:36:55;1.50;;;0.70;;
27031;SDS011;14580;52.918;9.214;2024-01-16T05:39:21;1.00;;;0.70;;
27031;SDS011;14580;52.918;9.214;2024-01-16T05:41:47;2.83;;;0.80;;
27031;SDS011;14580;52.918;9.214;2024-01-16T05:44:12;1.67;;;1.00;;
27031;SDS011;14580;52.918;9.214;2024-01-16T05:46:38;0.60;;;0.53;;
27031;SDS011;14580;52.918;9.214;2024-01-16T05:49:04;2.00;;;0.40;;
27031;SDS011;14580;52.918;9.214;2024-01-16T05:51:30;3.53;;;0.90;;
27031;SDS011;14580;52.918;9.214;2024-01-16T05:53:55;2.70;;;0.80;;
27031;SDS011;14580;52.918;9.214;2024-01-16T05:56:22;6.33;;;0.80;;
27031;SDS011;14580;52.918;9.214;2024-01-16T05:58:47;1.33;;;0.60;;
27031;SDS011;14580;52.918;9.214;2024-01-16T06:01:13;4.00;;;0.80;;
27031;SDS011;14580;52.918;9.214;2024-01-16T06:03:39;4.37;;;1.37;;
27031;SDS011;14580;52.918;9.214;2024-01-16T06:06:06;0.50;;;0.50;;
27031;SDS011;14580;52.918;9.214;2024-01-16T06:08:33;1.80;;;0.70;;
27031;SDS011;14580;52.918;9.214;2024-01-16T06:10:59;1.80;;;1.00;;
27031;SDS011;14580;52.918;9.214;2024-01-16T06:13:25;0.67;;;0.60;;
27031;SDS011;14580;52.918;9.214;2024-01-16T06:26:12;4.10;;;1.20;;
27031;SDS011;14580;52.918;9.214;2024-01-16T06:28:37;3.97;;;1.10;;
27031;SDS011;14580;52.918;9.214;2024-01-16T06:31:05;2.53;;;1.33;;
27031;SDS011;14580;52.918;9.214;2024-01-16T06:33:30;3.03;;;1.20;;
27031;SDS011;14580;52.918;9.214;2024-01-16T06:35:56;2.60;;;1.40;;
27031;SDS011;14580;52.918;9.214;2024-01-16T06:38:22;4.83;;;1.67;;
27031;SDS011;14580;52.918;9.214;2024-01-16T06:40:49;5.80;;;1.60;;
27031;SDS011;14580;52.918;9.214;2024-01-16T06:43:15;7.00;;;2.00;;
27031;SDS011;14580;52.918;9.214;2024-01-16T06:45:44;6.83;;;1.43;;
27031;SDS011;14580;52.918;9.214;2024-01-16T06:48:10;3.77;;;1.47;;
27031;SDS011;14580;52.918;9.214;2024-01-16T06:50:36;2.23;;;1.60;;
27031;SDS011;14580;52.918;9.214;2024-01-16T06:53:01;2.20;;;1.67;;
27031;SDS011;14580;52.918;9.214;2024-01-16T06:55:27;5.30;;;1.57;;
27031;SDS011;14580;52.918;9.214;2024-01-16T06:57:53;5.70;;;1.80;;
27031;SDS011;14580;52.918;9.214;2024-01-16T07:00:19;2.67;;;2.30;;
27031;SDS011;14580;52.918;9.214;2024-01-16T07:02:47;3.50;;;1.80;;
27031;SDS011;14580;52.918;9.214;2024-01-16T07:05:13;5.13;;;1.80;;
27031;SDS011;14580;52.918;9.214;2024-01-16T07:07:39;5.67;;;2.43;;
27031;SDS011;14580;52.918;9.214;2024-01-16T07:10:05;2.87;;;1.60;;
27031;SDS011;14580;52.918;9.214;2024-01-16T07:12:42;7.63;;;2.07;;
27031;SDS011;14580;52.918;9.214;2024-01-16T07:15:12;4.07;;;2.23;;
27031;SDS011;14580;52.918;9.214;2024-01-16T07:17:38;3.10;;;2.13;;
27031;SDS011;14580;52.918;9.214;2024-01-16T07:20:05;7.67;;;2.77;;
27031;SDS011;14580;52.918;9.214;2024-01-16T07:22:32;2.27;;;1.77;;
27031;SDS011;14580;52.918;9.214;2024-01-16T07:24:59;7.20;;;2.63;;
27031;SDS011;14580;52.918;9.214;2024-01-16T07:27:25;4.93;;;2.40;;
27031;SDS011;14580;52.918;9.214;2024-01-16T07:29:51;3.53;;;2.40;;
27031;SDS011;14580;52.918;9.214;2024-01-16T07:32:17;2.43;;;1.57;;
27031;SDS011;14580;52.918;9.214;2024-01-16T07:34:42;3.03;;;1.50;;
27031;SDS011;14580;52.918;9.214;2024-01-16T07:37:09;4.63;;;2.40;;
27031;SDS011;14580;52.918;9.214;2024-01-16T07:39:34;4.67;;;1.80;;
27031;SDS011;14580;52.918;9.214;2024-01-16T07:42:00;3.07;;;1.80;;
27031;SDS011;14580;52.918;9.214;2024-01-16T07:44:26;1.77;;;1.40;;
27031;SDS011;14580;52.918;9.214;2024-01-16T07:46:52;3.03;;;1.47;;
27031;SDS011;14580;52.918;9.214;2024-01-16T07:49:18;3.40;;;2.00;;
27031;SDS011;14580;52.918;9.214;2024-01-16T07:51:44;3.07;;;1.67;;
27031;SDS011;14580;52.918;9.214;2024-01-16T07:54:10;4.60;;;1.70;;
27031;SDS011;14580;52.918;9.214;2024-01-16T07:56:36;3.70;;;1.50;;
27031;SDS011;14580;52.918;9.214;2024-01-16T07:59:02;4.63;;;1.47;;
27031;SDS011;14580;52.918;9.214;2024-01-16T08:01:29;4.47;;;1.57;;
27031;SDS011;14580;52.918;9.214;2024-01-16T08:03:55;2.27;;;1.60;;
27031;SDS011;14580;52.918;9.214;2024-01-16T08:06:21;2.63;;;1.47;;
27031;SDS011;14580;52.918;9.214;2024-01-16T08:08:48;2.80;;;1.47;;
27031;SDS011;14580;52.918;9.214;2024-01-16T08:11:15;5.00;;;1.67;;
27031;SDS011;14580;52.918;9.214;2024-01-16T08:13:41;6.20;;;2.23;;
27031;SDS011;14580;52.918;9.214;2024-01-16T08:16:07;4.57;;;1.80;;
27031;SDS011;14580;52.918;9.214;2024-01-16T08:18:33;4.50;;;1.80;;
27031;SDS011;14580;52.918;9.214;2024-01-16T08:20:59;3.63;;;1.37;;
27031;SDS011;14580;52.918;9.214;2024-01-16T08:23:25;3.03;;;1.53;;
27031;SDS011;14580;52.918;9.214;2024-01-16T08:25:54;6.17;;;1.60;;
27031;SDS011;14580;52.918;9.214;2024-01-16T08:28:20;3.50;;;1.60;;
27031;SDS011;14580;52.918;9.214;2024-01-16T08:30:58;3.67;;;2.00;;
27031;SDS011;14580;52.918;9.214;2024-01-16T08:33:24;5.40;;;1.77;;
27031;SDS011;14580;52.918;9.214;2024-01-16T08:35:50;4.97;;;1.83;;
27031;SDS011;14580;52.918;9.214;2024-01-16T08:38:16;3.40;;;1.77;;
27031;SDS011;14580;52.918;9.214;2024-01-16T08:40:41;4.57;;;2.00;;
27031;SDS011;14580;52.918;9.214;2024-01-16T08:43:07;3.23;;;1.67;;
27031;SDS011;14580;52.918;9.214;2024-01-16T08:45:33;5.13;;;2.00;;
27031;SDS011;14580;52.918;9.214;2024-01-16T08:48:07;1.93;;;1.47;;
27031;SDS011;14580;52.918;9.214;2024-01-16T08:51:31;5.27;;;2.20;;
27031;SDS011;14580;52.918;9.214;2024-01-16T08:58:36;1.97;;;1.70;;
27031;SDS011;14580;52.918;9.214;2024-01-16T09:06:10;6.57;;;3.43;;
27031;SDS011;14580;52.918;9.214;2024-01-16T09:12:48;2.07;;;1.47;;
27031;SDS011;14580;52.918;9.214;2024-01-16T09:15:30;4.30;;;1.60;;
27031;SDS011;14580;52.918;9.214;2024-01-16T09:18:19;3.10;;;2.07;;
27031;SDS011;14580;52.918;9.214;2024-01-16T09:20:58;4.73;;;2.00;;
27031;SDS011;14580;52.918;9.214;2024-01-16T09:23:49;5.27;;;1.90;;
27031;SDS011;14580;52.918;9.214;2024-01-16T09:34:41;3.73;;;1.97;;
27031;SDS011;14580;52.918;9.214;2024-01-16T09:37:07;4.80;;;1.77;;
27031;SDS011;14580;52.918;9.214;2024-01-16T09:39:42;4.27;;;1.43;;
27031;SDS011;14580;52.918;9.214;2024-01-16T09:42:08;2.70;;;1.70;;
27031;SDS011;14580;52.918;9.214;2024-01-16T09:44:34;3.87;;;1.37;;
27031;SDS011;14580;52.918;9.214;2024-01-16T09:47:00;2.30;;;1.80;;
27031;SDS011;14580;52.918;9.214;2024-01-16T09:49:30;2.30;;;1.50;;
27031;SDS011;14580;52.918;9.214;2024-01-16T09:51:56;2.80;;;1.43;;
27031;SDS011;14580;52.918;9.214;2024-01-16T09:54:24;4.50;;;1.90;;
27031;SDS011;14580;52.918;9.214;2024-01-16T09:56:52;3.57;;;1.60;;
27031;SDS011;14580;52.918;9.214;2024-01-16T09:59:23;1.93;;;1.53;;
27031;SDS011;14580;52.918;9.214;2024-01-16T10:01:54;2.60;;;1.00;;
27031;SDS011;14580;52.918;9.214;2024-01-16T10:04:21;5.60;;;2.67;;
27031;SDS011;14580;52.918;9.214;2024-01-16T10:06:47;2.80;;;1.97;;
27031;SDS011;14580;52.918;9.214;2024-01-16T10:09:15;1.93;;;1.73;;
27031;SDS011;14580;52.918;9.214;2024-01-16T10:11:41;5.40;;;2.27;;
27031;SDS011;14580;52.918;9.214;2024-01-16T10:14:07;2.33;;;2.00;;
27031;SDS011;14580;52.918;9.214;2024-01-16T10:19:35;2.13;;;1.47;;
27031;SDS011;14580;52.918;9.214;2024-01-16T10:22:21;4.33;;;1.93;;
27031;SDS011;14580;52.918;9.214;2024-01-16T10:25:12;3.30;;;1.53;;
27031;SDS011;14580;52.918;9.214;2024-01-16T10:27:41;2.03;;;1.47;;
27031;SDS011;14580;52.918;9.214;2024-01-16T10:30:07;3.17;;;1.83;;
27031;SDS011;14580;52.918;9.214;2024-01-16T10:32:41;2.67;;;1.80;;
27031;SDS011;14580;52.918;9.214;2024-01-16T10:35:08;1.60;;;1.50;;
27031;SDS011;14580;52.918;9.214;2024-01-16T10:37:45;3.13;;;0.83;;
27031;SDS011;14580;52.918;9.214;2024-01-16T10:40:17;1.27;;;0.83;;
27031;SDS011;14580;52.918;9.214;2024-01-16T10:42:48;1.10;;;1.00;;
27031;SDS011;14580;52.918;9.214;2024-01-16T10:45:25;2.17;;;1.73;;
27031;SDS011;14580;52.918;9.214;2024-01-16T10:50:31;1.77;;;1.60;;
27031;SDS011;14580;52.918;9.214;2024-01-16T10:52:59;3.43;;;1.00;;
27031;SDS011;14580;52.918;9.214;2024-01-16T10:55:33;0.87;;;0.80;;
27031;SDS011;14580;52.918;9.214;2024-01-16T10:58:22;2.27;;;1.57;;
27031;SDS011;14580;52.918;9.214;2024-01-16T11:00:51;1.43;;;1.33;;
27031;SDS011;14580;52.918;9.214;2024-01-16T11:03:19;1.60;;;1.50;;
27031;SDS011;14580;52.918;9.214;2024-01-16T11:06:02;1.03;;;0.80;;
27031;SDS011;14580;52.918;9.214;2024-01-16T11:08:33;0.97;;;0.97;;
27031;SDS011;14580;52.918;9.214;2024-01-16T11:11:02;3.97;;;2.03;;
27031;SDS011;14580;52.918;9.214;2024-01-16T11:13:33;5.20;;;2.07;;
27031;SDS011;14580;52.918;9.214;2024-01-16T11:16:02;1.53;;;1.30;;
27031;SDS011;14580;52.918;9.214;2024-01-16T11:18:33;1.00;;;0.90;;
27031;SDS011;14580;52.918;9.214;2024-01-16T11:21:15;1.00;;;1.00;;
27031;SDS011;14580;52.918;9.214;2024-01-16T11:23:41;2.20;;;1.53;;
27031;SDS011;14580;52.918;9.214;2024-01-16T11:26:24;3.20;;;1.93;;
27031;SDS011;14580;52.918;9.214;2024-01-16T11:31:52;2.80;;;1.70;;
27031;SDS011;14580;52.918;9.214;2024-01-16T11:35:04;4.97;;;1.63;;
27031;SDS011;14580;52.918;9.214;2024-01-16T11:37:08;5.53;;;2.03;;
27031;SDS011;14580;52.918;9.214;2024-01-16T11:39:36;2.10;;;1.80;;
27031;SDS011;14580;52.918;9.214;2024-01-16T11:42:02;2.07;;;1.63;;
27031;SDS011;14580;52.918;9.214;2024-01-16T11:44:45;2.37;;;2.00;;
27031;SDS011;14580;52.918;9.214;2024-01-16T11:47:16;2.57;;;1.30;;
27031;SDS011;14580;52.918;9.214;2024-01-16T11:49:44;4.63;;;2.23;;
27031;SDS011;14580;52.918;9.214;2024-01-16T11:52:11;2.73;;;2.00;;
27031;SDS011;14580;52.918;9.214;2024-01-16T11:54:38;4.10;;;1.93;;
27031;SDS011;14580;52.918;9.214;2024-01-16T12:00:00;7.93;;;1.63;;
27031;SDS011;14580;52.918;9.214;2024-01-16T12:05:20;1.00;;;0.73;;
27031;SDS011;14580;52.918;9.214;2024-01-16T12:07:50;1.80;;;1.47;;
27031;SDS011;14580;52.918;9.214;2024-01-16T12:10:19;3.30;;;2.13;;
27031;SDS011;14580;52.918;9.214;2024-01-16T12:12:51;1.90;;;1.70;;
27031;SDS011;14580;52.918;9.214;2024-01-16T12:15:23;2.10;;;1.33;;
27031;SDS011;14580;52.918;9.214;2024-01-16T12:17:56;2.87;;;1.93;;
27031;SDS011;14580;52.918;9.214;2024-01-16T12:20:30;2.63;;;1.70;;
27031;SDS011;14580;52.918;9.214;2024-01-16T12:23:05;1.80;;;1.40;;
27031;SDS011;14580;52.918;9.214;2024-01-16T12:25:35;2.77;;;2.03;;
27031;SDS011;14580;52.918;9.214;2024-01-16T12:28:07;3.13;;;2.50;;
27031;SDS011;14580;52.918;9.214;2024-01-16T12:30:36;2.97;;;2.40;;
27031;SDS011;14580;52.918;9.214;2024-01-16T12:35:40;1.73;;;1.60;;
27031;SDS011;14580;52.918;9.214;2024-01-16T12:38:11;3.33;;;2.40;;
27031;SDS011;14580;52.918;9.214;2024-01-16T12:40:43;3.07;;;1.40;;
27031;SDS011;14580;52.918;9.214;2024-01-16T12:43:13;5.30;;;2.57;;
27031;SDS011;14580;52.918;9.214;2024-01-16T12:45:40;2.50;;;1.70;;
27031;SDS011;14580;52.918;9.214;2024-01-16T12:48:06;1.10;;;1.00;;
27031;SDS011;14580;52.918;9.214;2024-01-16T12:50:33;6.60;;;1.83;;
27031;SDS011;14580;52.918;9.214;2024-01-16T12:53:09;2.70;;;2.07;;
27031;SDS011;14580;52.918;9.214;2024-01-16T12:55:39;4.07;;;2.47;;
27031;SDS011;14580;52.918;9.214;2024-01-16T12:58:15;4.30;;;2.40;;
27031;SDS011;14580;52.918;9.214;2024-01-16T13:00:48;6.07;;;2.57;;
27031;SDS011;14580;52.918;9.214;2024-01-16T13:05:44;5.03;;;2.60;;
27031;SDS011;14580;52.918;9.214;2024-01-16T13:08:17;3.83;;;2.30;;
27031;SDS011;14580;52.918;9.214;2024-01-16T13:10:47;2.47;;;2.17;;
27031;SDS011;14580;52.918;9.214;2024-01-16T13:13:28;4.50;;;2.03;;
27031;SDS011;14580;52.918;9.214;2024-01-16T13:15:54;2.70;;;1.93;;
27031;SDS011;14580;52.918;9.214;2024-01-16T13:18:22;4.03;;;2.33;;
27031;SDS011;14580;52.918;9.214;2024-01-16T13:20:57;2.83;;;1.87;;
27031;SDS011;14580;52.918;9.214;2024-01-16T13:23:24;14.00;;;3.27;;
27031;SDS011;14580;52.918;9.214;2024-01-16T13:25:52;5.00;;;2.53;;
27031;SDS011;14580;52.918;9.214;2024-01-16T13:28:20;4.77;;;2.57;;
27031;SDS011;14580;52.918;9.214;2024-01-16T13:30:47;3.87;;;2.47;;
27031;SDS011;14580;52.918;9.214;2024-01-16T13:33:14;1.97;;;1.73;;
27031;SDS011;14580;52.918;9.214;2024-01-16T13:35:43;1.50;;;1.20;;
27031;SDS011;14580;52.918;9.214;2024-01-16T13:38:14;6.10;;;2.70;;
27031;SDS011;14580;52.918;9.214;2024-01-16T13:40:44;5.80;;;2.77;;
27031;SDS011;14580;52.918;9.214;2024-01-16T13:43:10;2.13;;;1.93;;
27031;SDS011;14580;52.918;9.214;2024-01-16T13:45:39;1.90;;;1.67;;
27031;SDS011;14580;52.918;9.214;2024-01-16T13:48:06;3.90;;;2.50;;
27031;SDS011;14580;52.918;9.214;2024-01-16T13:50:33;5.80;;;3.37;;
27031;SDS011;14580;52.918;9.214;2024-01-16T13:53:00;4.30;;;2.87;;
27031;SDS011;14580;52.918;9.214;2024-01-16T13:55:29;7.47;;;1.57;;
27031;SDS011;14580;52.918;9.214;2024-01-16T13:57:56;3.40;;;2.70;;
27031;SDS011;14580;52.918;9.214;2024-01-16T14:00:23;9.37;;;2.77;;
27031;SDS011;14580;52.918;9.214;2024-01-16T14:02:55;5.60;;;3.80;;
27031;SDS011;14580;52.918;9.214;2024-01-16T14:05:35;3.17;;;2.07;;
27031;SDS011;14580;52.918;9.214;2024-01-16T14:08:07;4.10;;;2.53;;
27031;SDS011;14580;52.918;9.214;2024-01-16T14:10:41;2.47;;;2.03;;
27031;SDS011;14580;52.918;9.214;2024-01-16T14:13:36;1.60;;;1.20;;
27031;SDS011;14580;52.918;9.214;2024-01-16T14:16:11;2.27;;;1.53;;
27031;SDS011;14580;52.918;9.214;2024-01-16T14:19:16;7.23;;;2.60;;
27031;SDS011;14580;52.918;9.214;2024-01-16T14:21:58;6.03;;;3.03;;
27031;SDS011;14580;52.918;9.214;2024-01-16T14:24:24;1.07;;;1.07;;
27031;SDS011;14580;52.918;9.214;2024-01-16T14:26:50;4.87;;;1.93;;
27031;SDS011;14580;52.918;9.214;2024-01-16T14:29:15;1.87;;;1.57;;
27031;SDS011;14580;52.918;9.214;2024-01-16T14:31:41;2.07;;;1.83;;
27031;SDS011;14580;52.918;9.214;2024-01-16T14:34:10;6.00;;;3.17;;
27031;SDS011;14580;52.918;9.214;2024-01-16T14:36:39;2.73;;;2.40;;
27031;SDS011;14580;52.918;9.214;2024-01-16T14:39:06;4.77;;;3.10;;
27031;SDS011;14580;52.918;9.214;2024-01-16T14:41:38;1.50;;;1.20;;
27031;SDS011;14580;52.918;9.214;2024-01-16T14:44:06;2.47;;;2.23;;
27031;SDS011;14580;52.918;9.214;2024-01-16T14:46:37;1.43;;;1.20;;
27031;SDS011;14580;52.918;9.214;2024-01-16T14:49:08;2.57;;;1.50;;
27031;SDS011;14580;52.918;9.214;2024-01-16T14:51:33;1.70;;;1.37;;
27031;SDS011;14580;52.918;9.214;2024-01-16T14:54:00;2.30;;;1.67;;
27031;SDS011;14580;52.918;9.214;2024-01-16T14:56:30;2.80;;;1.93;;
27031;SDS011;14580;52.918;9.214;2024-01-16T14:58:56;5.83;;;2.43;;
27031;SDS011;14580;52.918;9.214;2024-01-16T15:01:22;4.50;;;1.47;;
27031;SDS011;14580;52.918;9.214;2024-01-16T15:03:48;2.00;;;1.83;;
27031;SDS011;14580;52.918;9.214;2024-01-16T15:06:14;2.33;;;1.67;;
27031;SDS011;14580;52.918;9.214;2024-01-16T15:08:42;3.30;;;2.40;;
27031;SDS011;14580;52.918;9.214;2024-01-16T15:11:08;5.50;;;3.17;;
27031;SDS011;14580;52.918;9.214;2024-01-16T15:13:35;3.33;;;2.33;;
27031;SDS011;14580;52.918;9.214;2024-01-16T15:16:02;7.93;;;3.57;;
27031;SDS011;14580;52.918;9.214;2024-01-16T15:18:28;2.93;;;2.03;;
27031;SDS011;14580;52.918;9.214;2024-01-16T15:20:53;4.57;;;2.40;;
27031;SDS011;14580;52.918;9.214;2024-01-16T15:23:20;7.17;;;3.30;;
27031;SDS011;14580;52.918;9.214;2024-01-16T15:25:46;6.23;;;4.17;;
27031;SDS011;14580;52.918;9.214;2024-01-16T15:28:11;5.43;;;3.77;;
27031;SDS011;14580;52.918;9.214;2024-01-16T15:30:38;3.43;;;3.13;;
27031;SDS011;14580;52.918;9.214;2024-01-16T15:33:04;9.13;;;4.80;;
27031;SDS011;14580;52.918;9.214;2024-01-16T15:35:30;4.90;;;3.93;;
27031;SDS011;14580;52.918;9.214;2024-01-16T15:37:57;8.37;;;3.60;;
27031;SDS011;14580;52.918;9.214;2024-01-16T15:40:23;5.23;;;3.60;;
27031;SDS011;14580;52.918;9.214;2024-01-16T15:42:49;5.77;;;4.83;;
27031;SDS011;14580;52.918;9.214;2024-01-16T15:45:15;7.00;;;4.73;;
27031;SDS011;14580;52.918;9.214;2024-01-16T15:47:41;6.27;;;4.03;;